Time;durP1;ratioP1;P1;durP2;ratioP2;P2;SDS_P1;SDS_P2;PMS_P1;PMS_P2;Temp;Humidity;BMP_temperature;BMP_pressure;BME280_temperature;BME280_humidity;BME280_pressure;Samples;Min_cycle;Max_cycle;Signal;HPM_P1;HPM_P2
2022/10/23 00:01:25;;;;;;;;;;;18.90;99.90;;;;;;5004704;28;20355;-72
2022/10/23 00:03:52;;;;;;;;;;;18.90;99.90;;;;;;5004117;28;19913;-76
2022/10/23 00:06:19;;;;;;;;;;;18.90;99.90;;;;;;5004879;28;20294;-78
2022/10/23 00:08:47;;;;;;;;;;;18.90;99.90;;;;;;5004384;28;19992;-71
2022/10/23 00:11:15;;;;;;;;;;;19.00;99.90;;;;;;5004596;28;20482;-76
2022/10/23 00:13:41;;;;;;;;;;;18.90;99.90;;;;;;5004483;28;19913;-72
2022/10/23 00:16:08;;;;;;;;;;;19.00;99.90;;;;;;5002809;28;19913;-74
2022/10/23 00:18:35;;;;;;;;;;;19.00;99.90;;;;;;5004694;28;20438;-73
2022/10/23 00:21:02;;;;;;;;;;;19.00;99.90;;;;;;5004281;28;20049;-73
2022/10/23 00:23:29;;;;;;;;;;;19.00;99.90;;;;;;5004202;28;20287;-75
2022/10/23 00:25:56;;;;;;;;;;;19.00;99.90;;;;;;5004303;28;19913;-73
2022/10/23 00:28:22;;;;;;;;;;;19.10;99.90;;;;;;5004404;28;19913;-74
2022/10/23 00:30:49;;;;;;;;;;;19.10;99.90;;;;;;5003208;28;19913;-70
2022/10/23 00:33:16;;;;;;;;;;;19.20;99.90;;;;;;5004144;28;20784;-76
2022/10/23 00:35:43;;;;;;;;;;;19.30;99.90;;;;;;5004180;28;20024;-72
2022/10/23 00:38:10;;;;;;;;;;;19.30;99.90;;;;;;5004350;28;19922;-70
2022/10/23 00:40:37;;;;;;;;;;;19.20;99.90;;;;;;5003790;28;19948;-75
2022/10/23 00:43:04;;;;;;;;;;;19.20;99.90;;;;;;5003697;28;19921;-72
2022/10/23 00:45:32;;;;;;;;;;;19.30;99.90;;;;;;5004116;28;20635;-68
2022/10/23 00:48:00;;;;;;;;;;;19.40;99.90;;;;;;5003638;28;19925;-72
2022/10/23 00:50:27;;;;;;;;;;;19.40;99.90;;;;;;5003343;28;20567;-71
2022/10/23 00:52:55;;;;;;;;;;;19.50;99.90;;;;;;5000422;28;19926;-76
2022/10/23 00:55:23;;;;;;;;;;;19.70;99.90;;;;;;4984206;28;19920;-78
2022/10/23 00:57:50;;;;;;;;;;;19.70;99.90;;;;;;4984329;28;19913;-75
2022/10/23 01:00:22;;;;;;;;;;;19.80;99.90;;;;;;4984319;28;20025;-77
2022/10/23 01:02:49;;;;;;;;;;;19.90;99.90;;;;;;4983904;28;20756;-74
2022/10/23 01:05:16;;;;;;;;;;;19.80;99.90;;;;;;4984347;28;20365;-77
2022/10/23 01:08:04;;;;;;;;;;;19.90;99.90;;;;;;4984376;28;19918;-77
2022/10/23 01:10:38;;;;;;;;;;;20.00;99.90;;;;;;4984256;28;19918;-75
2022/10/23 01:13:08;;;;;;;;;;;19.90;99.90;;;;;;4983935;28;19920;-76
2022/10/23 01:15:44;;;;;;;;;;;20.00;99.90;;;;;;4983921;28;20418;-73
2022/10/23 01:18:22;;;;;;;;;;;19.90;99.90;;;;;;4984214;28;20004;-72
2022/10/23 01:20:51;;;;;;;;;;;20.00;99.90;;;;;;4989605;28;19918;-73
2022/10/23 01:23:36;;;;;;;;;;;20.00;99.90;;;;;;4995252;28;19913;-76
2022/10/23 01:26:09;;;;;;;;;;;20.10;99.90;;;;;;4996088;28;19914;-75
2022/10/23 01:28:38;;;;;;;;;;;20.00;99.90;;;;;;4996418;28;19910;-70
2022/10/23 01:31:08;;;;;;;;;;;19.90;99.90;;;;;;4995832;28;20012;-69
2022/10/23 01:33:40;;;;;;;;;;;20.00;99.90;;;;;;4996048;28;20009;-69
2022/10/23 01:36:10;;;;;;;;;;;20.10;99.90;;;;;;4996232;28;19916;-69
2022/10/23 01:39:06;;;;;;;;;;;20.30;99.90;;;;;;4996206;28;19910;-75
2022/10/23 01:41:41;;;;;;;;;;;20.40;99.90;;;;;;4986788;28;19918;-70
2022/10/23 01:44:08;;;;;;;;;;;20.50;99.90;;;;;;4995933;28;19953;-69
2022/10/23 01:46:36;;;;;;;;;;;20.70;99.90;;;;;;4996161;28;19914;-69
2022/10/23 01:49:05;;;;;;;;;;;20.80;99.90;;;;;;5012679;28;19928;-69
2022/10/23 01:51:32;;;;;;;;;;;20.90;99.90;;;;;;5015200;28;19910;-69
2022/10/23 01:54:00;;;;;;;;;;;21.00;99.90;;;;;;5005888;28;19914;-68
2022/10/23 01:56:31;;;;;;;;;;;21.10;99.90;;;;;;4995606;28;19914;-70
2022/10/23 01:59:00;;;;;;;;;;;21.20;99.90;;;;;;4995708;28;19999;-69
2022/10/23 02:01:28;;;;;;;;;;;21.20;99.90;;;;;;4995507;28;19922;-70
2022/10/23 02:03:55;;;;;;;;;;;21.30;99.90;;;;;;4995718;28;20438;-70
2022/10/23 02:06:22;;;;;;;;;;;21.40;99.90;;;;;;4995650;28;19921;-69
2022/10/23 02:08:49;;;;;;;;;;;21.40;99.90;;;;;;4995503;28;19972;-68
2022/10/23 02:11:20;;;;;;;;;;;21.40;99.90;;;;;;4995025;28;20008;-69
2022/10/23 02:13:47;;;;;;;;;;;21.50;99.90;;;;;;4995361;28;19964;-69
2022/10/23 02:16:19;;;;;;;;;;;21.50;99.90;;;;;;4995547;28;20459;-70
2022/10/23 02:18:55;;;;;;;;;;;21.50;99.90;;;;;;4995416;28;19917;-69
2022/10/23 02:21:33;;;;;;;;;;;21.60;99.90;;;;;;4995125;28;19921;-69
2022/10/23 02:24:07;;;;;;;;;;;21.50;99.90;;;;;;4995305;28;19914;-69
2022/10/23 02:26:35;;;;;;;;;;;21.40;99.90;;;;;;4977577;28;20009;-73
2022/10/23 02:29:22;;;;;;;;;;;21.30;99.90;;;;;;4994906;28;19910;-74
2022/10/23 02:31:48;;;;;;;;;;;21.40;99.90;;;;;;4993184;28;19984;-72
2022/10/23 02:34:15;;;;;;;;;;;21.40;99.90;;;;;;4994984;28;19920;-73
2022/10/23 02:36:42;;;;;;;;;;;21.50;99.90;;;;;;4995207;28;19910;-73
2022/10/23 02:39:09;;;;;;;;;;;21.60;99.90;;;;;;4994769;28;19914;-71
2022/10/23 02:41:38;;;;;;;;;;;21.60;99.90;;;;;;4994469;28;19960;-76
2022/10/23 02:44:23;;;;;;;;;;;21.70;99.90;;;;;;4994965;28;19921;-75
2022/10/23 02:46:50;;;;;;;;;;;21.50;99.90;;;;;;4994823;28;19920;-75
2022/10/23 02:49:40;;;;;;;;;;;21.50;99.90;;;;;;5013714;28;19955;-75
2022/10/23 02:52:25;;;;;;;;;;;21.50;99.90;;;;;;5005394;28;19910;-76
2022/10/23 02:55:07;;;;;;;;;;;21.60;99.90;;;;;;5013994;28;19913;-71
2022/10/23 02:57:37;;;;;;;;;;;21.60;99.90;;;;;;5014405;28;19919;-76
2022/10/23 03:00:17;;;;;;;;;;;21.70;99.90;;;;;;5013988;28;20393;-76
2022/10/23 03:02:47;;;;;;;;;;;21.80;99.90;;;;;;5014231;28;20036;-76
2022/10/23 03:05:16;;;;;;;;;;;21.80;99.90;;;;;;5014312;28;19963;-76
2022/10/23 03:07:43;;;;;;;;;;;21.60;99.90;;;;;;5014110;28;19914;-74
2022/10/23 03:10:10;;;;;;;;;;;21.60;99.90;;;;;;5013527;28;19916;-76
2022/10/23 03:12:37;;;;;;;;;;;21.70;99.90;;;;;;5014133;28;19909;-78
2022/10/23 03:15:04;;;;;;;;;;;21.70;99.90;;;;;;5013836;28;19917;-75
2022/10/23 03:17:31;;;;;;;;;;;21.70;99.90;;;;;;5012527;28;19971;-75
2022/10/23 03:19:58;;;;;;;;;;;21.60;99.90;;;;;;5013491;28;19921;-75
2022/10/23 03:22:24;;;;;;;;;;;21.50;99.90;;;;;;5013764;28;19917;-72
2022/10/23 03:24:51;;;;;;;;;;;21.50;99.90;;;;;;5013405;28;19913;-76
2022/10/23 03:27:18;;;;;;;;;;;21.40;99.90;;;;;;5013814;28;19988;-76
2022/10/23 03:29:44;;;;;;;;;;;21.40;99.90;;;;;;5013817;28;19921;-75
2022/10/23 03:32:11;;;;;;;;;;;21.50;99.90;;;;;;5013403;28;19909;-76
2022/10/23 03:34:38;;;;;;;;;;;21.60;99.90;;;;;;5013590;28;20546;-76
2022/10/23 03:37:04;;;;;;;;;;;21.50;99.90;;;;;;5013432;28;19920;-76
2022/10/23 03:39:31;;;;;;;;;;;21.50;99.90;;;;;;5013272;28;19909;-74
2022/10/23 03:41:58;;;;;;;;;;;21.50;99.90;;;;;;5012566;28;19967;-75
2022/10/23 03:44:24;;;;;;;;;;;21.50;99.90;;;;;;5012589;28;19913;-73
2022/10/23 03:46:51;;;;;;;;;;;21.50;99.90;;;;;;5013380;28;19910;-75
2022/10/23 03:49:18;;;;;;;;;;;21.50;99.90;;;;;;5013225;28;19921;-73
2022/10/23 03:51:50;;;;;;;;;;;21.50;99.90;;;;;;5013184;28;20003;-73
2022/10/23 03:54:27;;;;;;;;;;;21.50;99.90;;;;;;5011264;28;20003;-76
2022/10/23 03:56:54;;;;;;;;;;;21.50;99.90;;;;;;5011623;28;20285;-74
2022/10/23 03:59:20;;;;;;;;;;;21.40;99.90;;;;;;5011434;28;19997;-72
2022/10/23 04:01:47;;;;;;;;;;;21.40;99.90;;;;;;5011232;28;19914;-75
2022/10/23 04:04:14;;;;;;;;;;;21.40;99.90;;;;;;5011750;28;19964;-74
2022/10/23 04:06:41;;;;;;;;;;;21.40;99.90;;;;;;5011659;28;19910;-74
2022/10/23 04:09:08;;;;;;;;;;;21.40;99.90;;;;;;5011581;28;20059;-73
2022/10/23 04:11:35;;;;;;;;;;;21.30;99.90;;;;;;5012827;28;20359;-74
2022/10/23 04:14:01;;;;;;;;;;;21.40;99.90;;;;;;5013235;28;20024;-76
2022/10/23 04:16:28;;;;;;;;;;;21.30;99.90;;;;;;5012856;28;19910;-70
2022/10/23 04:18:55;;;;;;;;;;;21.30;99.90;;;;;;5012688;28;19956;-74
2022/10/23 04:21:23;;;;;;;;;;;21.20;99.90;;;;;;5010363;28;20318;-76
2022/10/23 04:23:50;;;;;;;;;;;21.10;99.90;;;;;;5012734;28;20371;-73
2022/10/23 04:26:16;;;;;;;;;;;21.00;99.90;;;;;;5011377;28;19992;-76
2022/10/23 04:28:43;;;;;;;;;;;20.90;99.90;;;;;;5012784;28;19979;-76
2022/10/23 04:31:10;;;;;;;;;;;20.80;99.90;;;;;;5012663;28;19913;-74
2022/10/23 04:33:36;;;;;;;;;;;20.80;99.90;;;;;;5012977;28;19917;-76
2022/10/23 04:36:03;;;;;;;;;;;20.80;99.90;;;;;;5012936;28;19916;-75
2022/10/23 04:38:30;;;;;;;;;;;20.70;99.90;;;;;;5013115;28;19960;-75
2022/10/23 04:40:56;;;;;;;;;;;20.70;99.90;;;;;;5012402;28;20286;-77
2022/10/23 04:43:23;;;;;;;;;;;20.60;99.90;;;;;;5012772;28;20556;-76
2022/10/23 04:45:50;;;;;;;;;;;20.60;99.90;;;;;;5012638;28;20399;-76
2022/10/23 04:48:17;;;;;;;;;;;20.60;99.90;;;;;;5012279;28;19968;-76
2022/10/23 04:50:43;;;;;;;;;;;20.70;99.90;;;;;;5012056;28;19925;-76
2022/10/23 04:53:10;;;;;;;;;;;20.80;99.90;;;;;;5012425;28;20008;-76
2022/10/23 04:55:37;;;;;;;;;;;20.80;99.90;;;;;;5011760;28;19921;-76
2022/10/23 04:58:03;;;;;;;;;;;20.80;99.90;;;;;;5012616;28;19918;-76
2022/10/23 05:00:30;;;;;;;;;;;20.70;99.90;;;;;;5012081;28;19925;-75
2022/10/23 05:02:57;;;;;;;;;;;20.70;99.90;;;;;;5012268;28;19917;-76
2022/10/23 05:05:23;;;;;;;;;;;20.70;99.90;;;;;;5012200;28;20011;-76
2022/10/23 05:07:50;;;;;;;;;;;20.60;99.90;;;;;;5012311;28;19910;-76
2022/10/23 05:10:18;;;;;;;;;;;20.60;99.90;;;;;;5011948;28;19918;-77
2022/10/23 05:12:45;;;;;;;;;;;20.60;99.90;;;;;;5012413;28;19909;-76
2022/10/23 05:15:12;;;;;;;;;;;20.50;99.90;;;;;;5012338;28;19917;-77
2022/10/23 05:17:41;;;;;;;;;;;20.50;99.90;;;;;;5012369;28;19909;-77
2022/10/23 05:20:11;;;;;;;;;;;20.50;99.90;;;;;;5011608;28;20440;-76
2022/10/23 05:22:39;;;;;;;;;;;20.50;99.90;;;;;;5012112;28;19932;-76
2022/10/23 05:25:05;;;;;;;;;;;20.50;99.90;;;;;;5011828;28;19920;-77
2022/10/23 05:27:32;;;;;;;;;;;20.40;99.90;;;;;;5012052;28;19909;-75
2022/10/23 05:29:59;;;;;;;;;;;20.40;99.90;;;;;;5011866;28;19914;-77
2022/10/23 05:32:27;;;;;;;;;;;20.40;99.90;;;;;;5012005;28;19909;-76
2022/10/23 05:34:53;;;;;;;;;;;20.40;99.90;;;;;;5011588;28;20010;-71
2022/10/23 05:37:20;;;;;;;;;;;20.40;99.90;;;;;;5011506;28;19995;-71
2022/10/23 05:39:47;;;;;;;;;;;20.40;99.90;;;;;;5011238;28;19922;-74
2022/10/23 05:42:14;;;;;;;;;;;20.40;99.90;;;;;;5012035;28;19917;-73
2022/10/23 05:44:40;;;;;;;;;;;20.40;99.90;;;;;;5011990;28;19914;-70
2022/10/23 05:47:07;;;;;;;;;;;20.30;99.90;;;;;;5011649;28;19909;-74
2022/10/23 05:49:34;;;;;;;;;;;20.30;99.90;;;;;;5010835;28;19926;-75
2022/10/23 05:52:00;;;;;;;;;;;20.30;99.90;;;;;;5011870;28;19959;-76
2022/10/23 05:54:27;;;;;;;;;;;20.30;99.90;;;;;;5011750;28;19959;-71
2022/10/23 05:56:55;;;;;;;;;;;20.30;99.90;;;;;;5011437;28;20351;-71
2022/10/23 05:59:22;;;;;;;;;;;20.20;99.90;;;;;;5009156;28;19921;-68
2022/10/23 06:01:49;;;;;;;;;;;20.10;99.90;;;;;;5002851;28;20374;-75
2022/10/23 06:04:15;;;;;;;;;;;20.00;99.90;;;;;;5003397;28;19914;-74
2022/10/23 06:06:44;;;;;;;;;;;20.00;99.90;;;;;;5005291;28;20032;-75
2022/10/23 06:09:10;;;;;;;;;;;20.00;99.90;;;;;;5006464;28;19975;-73
2022/10/23 06:11:37;;;;;;;;;;;20.00;99.90;;;;;;5005765;28;20452;-75
2022/10/23 06:14:03;;;;;;;;;;;20.00;99.90;;;;;;5006132;28;20358;-72
2022/10/23 06:16:30;;;;;;;;;;;20.00;99.90;;;;;;5006513;28;20100;-72
2022/10/23 06:19:00;;;;;;;;;;;20.00;99.90;;;;;;5006691;28;19914;-74
2022/10/23 06:21:26;;;;;;;;;;;20.00;99.90;;;;;;5006131;28;20039;-74
2022/10/23 06:23:54;;;;;;;;;;;20.00;99.90;;;;;;5006341;28;20435;-72
2022/10/23 06:26:20;;;;;;;;;;;20.00;99.90;;;;;;5006265;28;19917;-74
2022/10/23 06:28:47;;;;;;;;;;;20.00;99.90;;;;;;5005083;28;20498;-72
2022/10/23 06:31:15;;;;;;;;;;;20.00;99.90;;;;;;5006223;28;20090;-74
2022/10/23 06:33:42;;;;;;;;;;;19.90;99.90;;;;;;5006151;28;20268;-75
2022/10/23 06:36:09;;;;;;;;;;;19.90;99.90;;;;;;5006381;28;19917;-73
2022/10/23 06:38:39;;;;;;;;;;;19.80;99.90;;;;;;5005981;28;20068;-70
2022/10/23 06:41:15;;;;;;;;;;;19.70;99.90;;;;;;5006228;28;20011;-74
2022/10/23 06:43:42;;;;;;;;;;;19.80;99.90;;;;;;5009577;28;19974;-74
2022/10/23 06:46:09;;;;;;;;;;;19.80;99.90;;;;;;5025697;28;20363;-73
2022/10/23 06:48:36;;;;;;;;;;;19.70;99.90;;;;;;5011778;28;19931;-72
2022/10/23 06:51:07;;;;;;;;;;;19.70;99.90;;;;;;5003730;28;19967;-71
2022/10/23 06:53:34;;;;;;;;;;;19.70;99.90;;;;;;5005336;28;20009;-70
2022/10/23 06:56:02;;;;;;;;;;;19.70;99.90;;;;;;5005966;28;19913;-70
2022/10/23 06:58:28;;;;;;;;;;;19.70;99.90;;;;;;5005544;28;20376;-73
2022/10/23 07:00:55;;;;;;;;;;;19.70;99.90;;;;;;5012484;28;19968;-71
2022/10/23 07:03:22;;;;;;;;;;;19.70;99.90;;;;;;5014133;28;19910;-71
2022/10/23 07:05:48;;;;;;;;;;;19.70;99.90;;;;;;5014155;28;20213;-70
2022/10/23 07:08:15;;;;;;;;;;;19.70;99.90;;;;;;5013999;28;20275;-75
2022/10/23 07:10:42;;;;;;;;;;;19.60;99.90;;;;;;5014178;28;19909;-70
2022/10/23 07:13:10;;;;;;;;;;;19.60;99.90;;;;;;5013967;28;20424;-73
2022/10/23 07:15:38;;;;;;;;;;;19.60;99.90;;;;;;5014120;28;19975;-71
2022/10/23 07:18:05;;;;;;;;;;;19.60;99.90;;;;;;5013220;28;19971;-69
2022/10/23 07:20:32;;;;;;;;;;;19.60;99.90;;;;;;5013576;28;19921;-75
2022/10/23 07:22:58;;;;;;;;;;;19.60;99.90;;;;;;5013276;28;19910;-74
2022/10/23 07:25:26;;;;;;;;;;;19.60;99.90;;;;;;5013728;28;19909;-73
2022/10/23 07:27:54;;;;;;;;;;;19.50;99.90;;;;;;5013544;28;19909;-76
2022/10/23 07:30:21;;;;;;;;;;;19.50;99.90;;;;;;5013381;28;19909;-73
2022/10/23 07:32:47;;;;;;;;;;;19.40;99.90;;;;;;5013387;28;20004;-73
2022/10/23 07:35:14;;;;;;;;;;;19.40;99.90;;;;;;5013605;28;19956;-68
2022/10/23 07:37:41;;;;;;;;;;;19.40;99.90;;;;;;5013488;28;19916;-75
2022/10/23 07:40:08;;;;;;;;;;;19.40;99.90;;;;;;5013024;28;20405;-74
2022/10/23 07:42:35;;;;;;;;;;;19.40;99.90;;;;;;5013736;28;20040;-76
2022/10/23 07:45:03;;;;;;;;;;;19.40;99.90;;;;;;5013795;28;19913;-75
2022/10/23 07:47:31;;;;;;;;;;;19.40;99.90;;;;;;5012038;28;19937;-71
2022/10/23 07:49:58;;;;;;;;;;;19.40;99.90;;;;;;5013074;28;19997;-69
2022/10/23 07:52:24;;;;;;;;;;;19.40;99.90;;;;;;5013291;28;20359;-76
2022/10/23 07:54:51;;;;;;;;;;;19.40;99.90;;;;;;5013046;28;19910;-75
2022/10/23 07:57:18;;;;;;;;;;;19.40;99.90;;;;;;5013409;28;19914;-74
2022/10/23 07:59:45;;;;;;;;;;;19.40;99.90;;;;;;5013336;28;19921;-75
2022/10/23 08:02:15;;;;;;;;;;;19.30;99.90;;;;;;5013208;28;20294;-73
2022/10/23 08:04:42;;;;;;;;;;;19.30;99.90;;;;;;5013128;28;19913;-71
2022/10/23 08:07:09;;;;;;;;;;;19.30;99.90;;;;;;5012790;28;19913;-75
2022/10/23 08:09:36;;;;;;;;;;;19.20;99.90;;;;;;5012675;28;19971;-70
2022/10/23 08:12:03;;;;;;;;;;;19.10;99.90;;;;;;5012936;28;19941;-75
2022/10/23 08:14:30;;;;;;;;;;;19.10;99.90;;;;;;5013216;28;19956;-74
2022/10/23 08:16:57;;;;;;;;;;;19.10;99.90;;;;;;5012915;28;19914;-73
2022/10/23 08:19:23;;;;;;;;;;;19.10;99.90;;;;;;5012470;28;20367;-76
2022/10/23 08:21:53;;;;;;;;;;;19.10;99.90;;;;;;5012623;28;19937;-68
2022/10/23 08:24:20;;;;;;;;;;;19.00;99.90;;;;;;5012894;28;19913;-74
2022/10/23 08:26:48;;;;;;;;;;;19.00;99.90;;;;;;5012673;28;19909;-69
2022/10/23 08:29:14;;;;;;;;;;;19.00;99.90;;;;;;5007710;28;19918;-69
2022/10/23 08:31:41;;;;;;;;;;;19.00;99.90;;;;;;5004544;28;19913;-70
2022/10/23 08:34:08;;;;;;;;;;;18.90;99.90;;;;;;5004209;28;19913;-70
2022/10/23 08:36:35;;;;;;;;;;;18.90;99.90;;;;;;5004214;28;20437;-71
2022/10/23 08:39:02;;;;;;;;;;;18.90;99.90;;;;;;5004101;28;20642;-70
2022/10/23 08:41:28;;;;;;;;;;;18.80;99.90;;;;;;5018700;28;20648;-72
2022/10/23 08:44:13;;;;;;;;;;;18.80;99.90;;;;;;5003728;28;19917;-74
2022/10/23 08:46:42;;;;;;;;;;;18.90;99.90;;;;;;5004669;28;20216;-71
2022/10/23 08:49:31;;;;;;;;;;;18.90;99.90;;;;;;5004065;28;20362;-70
2022/10/23 08:51:59;;;;;;;;;;;18.80;99.90;;;;;;4996243;28;20001;-70
2022/10/23 08:54:46;;;;;;;;;;;18.70;99.90;;;;;;5003991;28;19913;-71
2022/10/23 08:57:14;;;;;;;;;;;18.80;99.90;;;;;;4993298;28;19920;-70
2022/10/23 08:59:49;;;;;;;;;;;18.80;99.90;;;;;;5003742;28;19913;-71
2022/10/23 09:02:21;;;;;;;;;;;18.80;99.90;;;;;;5004268;28;19917;-71
2022/10/23 09:04:49;;;;;;;;;;;18.80;99.90;;;;;;5003801;28;20441;-72
2022/10/23 09:07:25;;;;;;;;;;;18.80;99.90;;;;;;5004094;28;19920;-71
2022/10/23 09:10:06;;;;;;;;;;;18.80;99.90;;;;;;5003130;28;19921;-71
2022/10/23 09:12:33;;;;;;;;;;;18.80;99.90;;;;;;5004095;28;19921;-71
2022/10/23 09:15:03;;;;;;;;;;;18.80;99.90;;;;;;5003581;28;19914;-72
2022/10/23 09:17:33;;;;;;;;;;;18.80;99.90;;;;;;5003820;28;19920;-71
2022/10/23 09:20:00;;;;;;;;;;;18.80;99.90;;;;;;5003344;28;19917;-72
2022/10/23 09:22:27;;;;;;;;;;;18.80;99.90;;;;;;5003431;28;19913;-70
2022/10/23 09:24:54;;;;;;;;;;;18.80;99.90;;;;;;5003787;28;19979;-71
2022/10/23 09:27:21;;;;;;;;;;;18.80;99.90;;;;;;5004214;28;19925;-70
2022/10/23 09:29:50;;;;;;;;;;;18.80;99.90;;;;;;5003937;28;20276;-77
2022/10/23 09:32:16;;;;;;;;;;;18.70;99.90;;;;;;5004011;28;20215;-73
2022/10/23 09:34:52;;;;;;;;;;;18.70;99.90;;;;;;5003603;28;19914;-76
2022/10/23 09:37:23;;;;;;;;;;;18.70;99.90;;;;;;5004109;28;19967;-75
2022/10/23 09:40:00;;;;;;;;;;;18.70;99.90;;;;;;5003539;28;19925;-75
2022/10/23 09:42:27;;;;;;;;;;;18.70;99.90;;;;;;5006579;28;20367;-74
2022/10/23 09:44:56;;;;;;;;;;;18.70;99.90;;;;;;5007102;28;19923;-73
2022/10/23 09:47:24;;;;;;;;;;;18.70;99.90;;;;;;5007118;28;20304;-72
2022/10/23 09:49:52;;;;;;;;;;;18.70;99.90;;;;;;5007320;28;19925;-74
2022/10/23 09:52:22;;;;;;;;;;;18.80;99.90;;;;;;5007563;28;20399;-69
2022/10/23 09:54:59;;;;;;;;;;;18.80;99.90;;;;;;5007183;28;19936;-70
2022/10/23 09:57:31;;;;;;;;;;;18.70;99.90;;;;;;5007852;28;19995;-72
2022/10/23 10:00:05;;;;;;;;;;;18.70;99.90;;;;;;5005146;28;20016;-71
2022/10/23 10:02:34;;;;;;;;;;;18.80;99.90;;;;;;5007300;28;19914;-73
2022/10/23 10:05:20;;;;;;;;;;;18.70;99.90;;;;;;5006930;28;19913;-77
2022/10/23 10:07:58;;;;;;;;;;;18.70;99.90;;;;;;5007326;28;20374;-76
2022/10/23 10:10:28;;;;;;;;;;;18.70;99.90;;;;;;5006809;28;19944;-69
2022/10/23 10:12:57;;;;;;;;;;;18.70;99.90;;;;;;5007228;28;19913;-71
2022/10/23 10:15:27;;;;;;;;;;;18.70;99.90;;;;;;5006744;28;19925;-76
2022/10/23 10:17:54;;;;;;;;;;;18.80;99.90;;;;;;5007070;28;20012;-75
2022/10/23 10:20:23;;;;;;;;;;;18.70;99.90;;;;;;5004769;28;19917;-73
2022/10/23 10:23:16;;;;;;;;;;;18.70;99.90;;;;;;5006557;28;19920;-76
2022/10/23 10:25:48;;;;;;;;;;;18.70;99.90;;;;;;4983645;28;19914;-74
2022/10/23 10:28:24;;;;;;;;;;;18.70;99.90;;;;;;5006268;28;20759;-77
2022/10/23 10:31:17;;;;;;;;;;;18.70;99.90;;;;;;5006596;28;19914;-77
2022/10/23 10:33:52;;;;;;;;;;;18.80;99.90;;;;;;5003878;28;20603;-77
2022/10/23 10:36:25;;;;;;;;;;;18.70;99.90;;;;;;5007083;28;19999;-75
2022/10/23 10:39:02;;;;;;;;;;;18.70;99.90;;;;;;5006401;28;19919;-76
2022/10/23 10:41:49;;;;;;;;;;;18.70;99.90;;;;;;5006469;28;19928;-75
2022/10/23 10:44:19;;;;;;;;;;;18.70;99.90;;;;;;5005012;28;20500;-77
2022/10/23 10:46:48;;;;;;;;;;;18.70;99.90;;;;;;5006353;28;19918;-69
2022/10/23 10:49:26;;;;;;;;;;;18.80;99.90;;;;;;5005835;28;19925;-77
2022/10/23 10:52:00;;;;;;;;;;;18.80;99.90;;;;;;5005917;28;20302;-76
2022/10/23 10:54:38;;;;;;;;;;;18.70;99.90;;;;;;5005492;28;19913;-77
2022/10/23 10:57:11;;;;;;;;;;;18.70;99.90;;;;;;5006408;28;20390;-77
2022/10/23 10:59:41;;;;;;;;;;;18.70;99.90;;;;;;5005514;28;20264;-77
2022/10/23 11:02:17;;;;;;;;;;;18.70;99.90;;;;;;5006067;28;19991;-76
2022/10/23 11:04:45;;;;;;;;;;;18.70;99.90;;;;;;5005825;28;20407;-76
2022/10/23 11:07:14;;;;;;;;;;;18.70;99.90;;;;;;5005621;28;19983;-77
2022/10/23 11:09:42;;;;;;;;;;;18.70;99.90;;;;;;5005898;28;20341;-74
2022/10/23 11:12:24;;;;;;;;;;;18.70;99.90;;;;;;5005767;28;19943;-71
2022/10/23 11:14:51;;;;;;;;;;;18.70;99.90;;;;;;5005686;28;19964;-74
2022/10/23 11:17:38;;;;;;;;;;;18.80;99.90;;;;;;5005963;28;20414;-77
2022/10/23 11:20:23;;;;;;;;;;;18.80;99.90;;;;;;5005507;28;19921;-73
2022/10/23 11:22:55;;;;;;;;;;;18.80;99.90;;;;;;5005134;28;20004;-69
2022/10/23 11:25:46;;;;;;;;;;;18.80;99.90;;;;;;5006028;28;20393;-70
2022/10/23 11:28:33;;;;;;;;;;;18.80;99.90;;;;;;4998006;28;19996;-71
2022/10/23 11:31:02;;;;;;;;;;;18.80;99.90;;;;;;5004992;28;20775;-69
2022/10/23 11:33:35;;;;;;;;;;;18.80;99.90;;;;;;5005074;28;19996;-70
2022/10/23 11:36:15;;;;;;;;;;;18.80;99.90;;;;;;5005548;28;20008;-73
2022/10/23 11:38:43;;;;;;;;;;;18.80;99.90;;;;;;5005635;28;19913;-70
2022/10/23 11:41:19;;;;;;;;;;;18.90;99.90;;;;;;5004923;28;19983;-72
2022/10/23 11:43:46;;;;;;;;;;;18.90;99.90;;;;;;5005091;28;20532;-71
2022/10/23 11:46:25;;;;;;;;;;;18.90;99.90;;;;;;5005011;28;20010;-68
2022/10/23 11:48:52;;;;;;;;;;;18.90;99.90;;;;;;5005177;28;19926;-72
2022/10/23 11:51:28;;;;;;;;;;;18.90;99.90;;;;;;5003510;28;20394;-69
2022/10/23 11:54:10;;;;;;;;;;;18.90;99.90;;;;;;5004879;28;19917;-72
2022/10/23 11:56:37;;;;;;;;;;;18.90;99.90;;;;;;5005736;28;19935;-76
2022/10/23 11:59:22;;;;;;;;;;;18.90;99.90;;;;;;5012843;28;19921;-70
2022/10/23 12:01:50;;;;;;;;;;;19.00;99.90;;;;;;5013371;28;20008;-69
2022/10/23 12:04:30;;;;;;;;;;;19.00;99.90;;;;;;5013046;28;19971;-76
2022/10/23 12:07:00;;;;;;;;;;;19.00;99.90;;;;;;5012959;28;19960;-77
2022/10/23 12:09:31;;;;;;;;;;;19.00;99.90;;;;;;5012698;28;19910;-71
2022/10/23 12:12:07;;;;;;;;;;;19.10;99.90;;;;;;5013252;28;19917;-69
2022/10/23 12:14:49;;;;;;;;;;;19.10;99.90;;;;;;5012945;28;19909;-68
2022/10/23 12:17:22;;;;;;;;;;;19.10;99.90;;;;;;5012968;28;19996;-69
2022/10/23 12:19:51;;;;;;;;;;;19.10;99.90;;;;;;5012783;28;19935;-70
2022/10/23 12:22:19;;;;;;;;;;;19.10;99.90;;;;;;5012965;28;20004;-69
2022/10/23 12:24:54;;;;;;;;;;;19.10;99.90;;;;;;5012766;28;19909;-69
2022/10/23 12:27:33;;;;;;;;;;;19.20;99.90;;;;;;5012761;28;19910;-69
2022/10/23 12:30:03;;;;;;;;;;;19.10;99.90;;;;;;5012418;28;19916;-69
2022/10/23 12:32:37;;;;;;;;;;;19.20;99.90;;;;;;5012858;28;20379;-69
2022/10/23 12:35:12;;;;;;;;;;;19.10;99.90;;;;;;5012527;28;20363;-69
2022/10/23 12:37:48;;;;;;;;;;;19.10;99.90;;;;;;5012631;28;19920;-69
2022/10/23 12:40:14;;;;;;;;;;;19.10;99.90;;;;;;5012209;28;20020;-69
2022/10/23 12:42:49;;;;;;;;;;;19.10;99.90;;;;;;5012466;28;19920;-71
2022/10/23 12:45:22;;;;;;;;;;;19.10;99.90;;;;;;5012587;28;19973;-71
2022/10/23 12:47:50;;;;;;;;;;;19.00;99.90;;;;;;5012569;28;19925;-68
2022/10/23 12:50:24;;;;;;;;;;;19.00;99.90;;;;;;5012246;28;19910;-69
2022/10/23 12:53:01;;;;;;;;;;;19.00;99.90;;;;;;5012381;28;19971;-71
2022/10/23 12:55:30;;;;;;;;;;;19.00;99.90;;;;;;5012484;28;19956;-69
2022/10/23 12:57:56;;;;;;;;;;;19.00;99.90;;;;;;5012524;28;20287;-69
2022/10/23 13:00:24;;;;;;;;;;;19.00;99.90;;;;;;5011932;28;20398;-71
2022/10/23 13:02:57;;;;;;;;;;;19.00;99.90;;;;;;5012083;28;19944;-71
2022/10/23 13:05:25;;;;;;;;;;;19.00;99.90;;;;;;5012223;28;19920;-69
2022/10/23 13:07:51;;;;;;;;;;;18.90;99.90;;;;;;5012247;28;19914;-73
2022/10/23 13:10:20;;;;;;;;;;;18.90;99.90;;;;;;5011978;28;19909;-70
2022/10/23 13:12:58;;;;;;;;;;;19.00;99.90;;;;;;5012204;28;20364;-71
2022/10/23 13:15:25;;;;;;;;;;;19.00;99.90;;;;;;5012370;28;20025;-69
2022/10/23 13:17:55;;;;;;;;;;;18.90;99.90;;;;;;5016368;28;19913;-69
2022/10/23 13:20:25;;;;;;;;;;;18.90;99.90;;;;;;5015856;28;19971;-69
2022/10/23 13:23:00;;;;;;;;;;;18.90;99.90;;;;;;5016005;28;20346;-69
2022/10/23 13:25:28;;;;;;;;;;;18.90;99.90;;;;;;5016207;28;19909;-69
2022/10/23 13:28:11;;;;;;;;;;;18.90;99.90;;;;;;5015997;28;19913;-70
2022/10/23 13:30:41;;;;;;;;;;;18.90;99.90;;;;;;5015759;28;19952;-73
2022/10/23 13:33:15;;;;;;;;;;;18.90;99.90;;;;;;5015698;28;19914;-70
2022/10/23 13:35:42;;;;;;;;;;;18.90;99.90;;;;;;5015847;28;19909;-70
2022/10/23 13:38:09;;;;;;;;;;;18.90;99.90;;;;;;5015966;28;20007;-69
2022/10/23 13:40:36;;;;;;;;;;;18.90;99.90;;;;;;5015431;28;19918;-70
2022/10/23 13:43:13;;;;;;;;;;;18.90;99.90;;;;;;5015562;28;19920;-70
2022/10/23 13:45:40;;;;;;;;;;;18.90;99.90;;;;;;5015834;28;19954;-72
2022/10/23 13:48:14;;;;;;;;;;;18.90;99.90;;;;;;5015599;28;20372;-69
2022/10/23 13:50:40;;;;;;;;;;;18.90;99.90;;;;;;5015327;28;19921;-70
2022/10/23 13:53:11;;;;;;;;;;;18.90;99.90;;;;;;5015614;28;19913;-69
2022/10/23 13:55:39;;;;;;;;;;;18.80;99.90;;;;;;5015636;28;19921;-71
2022/10/23 13:58:06;;;;;;;;;;;18.90;99.90;;;;;;5015725;28;19913;-68
2022/10/23 14:00:32;;;;;;;;;;;18.80;99.90;;;;;;5015151;28;19913;-68
2022/10/23 14:02:59;;;;;;;;;;;18.80;99.90;;;;;;5015696;28;19968;-75
2022/10/23 14:05:25;;;;;;;;;;;18.70;99.90;;;;;;5015893;28;19972;-71
2022/10/23 14:07:52;;;;;;;;;;;18.70;99.90;;;;;;5016017;28;19910;-75
2022/10/23 14:10:19;;;;;;;;;;;18.70;99.90;;;;;;5015610;28;19992;-75
2022/10/23 14:12:45;;;;;;;;;;;18.60;99.90;;;;;;5015166;28;19923;-71
2022/10/23 14:15:12;;;;;;;;;;;18.60;99.90;;;;;;5015519;28;19992;-75
2022/10/23 14:17:39;;;;;;;;;;;18.60;99.90;;;;;;5015157;28;20015;-76
2022/10/23 14:20:06;;;;;;;;;;;18.50;99.90;;;;;;5014818;28;20330;-75
2022/10/23 14:22:32;;;;;;;;;;;18.50;99.90;;;;;;5015328;28;19971;-75
2022/10/23 14:24:59;;;;;;;;;;;18.50;99.90;;;;;;5015002;28;19915;-73
2022/10/23 14:27:26;;;;;;;;;;;18.50;99.90;;;;;;5014971;28;19956;-75
2022/10/23 14:29:52;;;;;;;;;;;18.40;99.90;;;;;;5014846;28;19949;-77
2022/10/23 14:32:19;;;;;;;;;;;18.40;99.90;;;;;;5014990;28;20338;-75